sensor_id;sensor_type;location;lat;lon;timestamp;temperature;humidity
66710;DHT22;53624;0.000;0.000;2023-10-08T00:02:05;19.90;95.50
66710;DHT22;53624;0.000;0.000;2023-10-08T00:04:33;19.90;95.60
66710;DHT22;53624;0.000;0.000;2023-10-08T00:07:03;19.90;95.60
66710;DHT22;53624;0.000;0.000;2023-10-08T00:09:33;19.90;95.60
66710;DHT22;53624;0.000;0.000;2023-10-08T00:12:03;19.80;95.60
66710;DHT22;53624;0.000;0.000;2023-10-08T00:14:30;19.80;95.60
66710;DHT22;53624;0.000;0.000;2023-10-08T00:16:58;19.80;95.60
66710;DHT22;53624;0.000;0.000;2023-10-08T00:19:26;19.80;95.60
66710;DHT22;53624;0.000;0.000;2023-10-08T00:22:01;19.80;95.60
66710;DHT22;53624;0.000;0.000;2023-10-08T00:24:32;19.80;95.60
66710;DHT22;53624;0.000;0.000;2023-10-08T00:26:59;19.70;95.60
66710;DHT22;53624;0.000;0.000;2023-10-08T00:29:29;19.80;95.70
66710;DHT22;53624;0.000;0.000;2023-10-08T00:31:57;19.70;95.60
66710;DHT22;53624;0.000;0.000;2023-10-08T00:34:25;19.70;95.60
66710;DHT22;53624;0.000;0.000;2023-10-08T00:36:53;19.70;95.60
66710;DHT22;53624;0.000;0.000;2023-10-08T00:39:22;19.70;95.70
66710;DHT22;53624;0.000;0.000;2023-10-08T00:41:50;19.70;95.60
66710;DHT22;53624;0.000;0.000;2023-10-08T00:44:20;19.70;95.60
66710;DHT22;53624;0.000;0.000;2023-10-08T00:46:49;19.70;95.70
66710;DHT22;53624;0.000;0.000;2023-10-08T00:49:17;19.70;95.70
66710;DHT22;53624;0.000;0.000;2023-10-08T00:52:08;19.70;95.70
66710;DHT22;53624;0.000;0.000;2023-10-08T00:54:54;19.60;95.70
66710;DHT22;53624;0.000;0.000;2023-10-08T00:57:32;19.60;95.70
66710;DHT22;53624;0.000;0.000;2023-10-08T01:00:02;19.60;95.70
66710;DHT22;53624;0.000;0.000;2023-10-08T01:02:32;19.60;95.70
66710;DHT22;53624;0.000;0.000;2023-10-08T01:05:10;19.60;95.70
66710;DHT22;53624;0.000;0.000;2023-10-08T01:07:40;19.60;95.70
66710;DHT22;53624;0.000;0.000;2023-10-08T01:10:12;19.60;95.70
66710;DHT22;53624;0.000;0.000;2023-10-08T01:12:45;19.60;95.70
66710;DHT22;53624;0.000;0.000;2023-10-08T01:15:21;19.50;95.70
66710;DHT22;53624;0.000;0.000;2023-10-08T01:17:54;19.50;95.80
66710;DHT22;53624;0.000;0.000;2023-10-08T01:20:25;19.50;95.70
66710;DHT22;53624;0.000;0.000;2023-10-08T01:23:02;19.50;95.70
66710;DHT22;53624;0.000;0.000;2023-10-08T01:25:33;19.50;95.70
66710;DHT22;53624;0.000;0.000;2023-10-08T01:28:01;19.50;95.70
66710;DHT22;53624;0.000;0.000;2023-10-08T01:30:34;19.50;95.70
66710;DHT22;53624;0.000;0.000;2023-10-08T01:33:08;19.40;95.70
66710;DHT22;53624;0.000;0.000;2023-10-08T01:35:39;19.40;95.70
66710;DHT22;53624;0.000;0.000;2023-10-08T01:38:08;19.40;95.70
66710;DHT22;53624;0.000;0.000;2023-10-08T01:40:39;19.40;95.70
66710;DHT22;53624;0.000;0.000;2023-10-08T01:43:07;19.40;95.70
66710;DHT22;53624;0.000;0.000;2023-10-08T01:45:36;19.40;95.80
66710;DHT22;53624;0.000;0.000;2023-10-08T01:48:06;19.40;95.70
66710;DHT22;53624;0.000;0.000;2023-10-08T01:50:35;19.40;95.80
66710;DHT22;53624;0.000;0.000;2023-10-08T01:53:03;19.40;95.80
66710;DHT22;53624;0.000;0.000;2023-10-08T01:55:36;19.30;95.70
66710;DHT22;53624;0.000;0.000;2023-10-08T01:58:15;19.30;95.70
66710;DHT22;53624;0.000;0.000;2023-10-08T02:00:43;19.30;95.80
66710;DHT22;53624;0.000;0.000;2023-10-08T02:03:13;19.30;95.70
66710;DHT22;53624;0.000;0.000;2023-10-08T02:05:42;19.30;95.80
66710;DHT22;53624;0.000;0.000;2023-10-08T02:08:09;19.30;95.70
66710;DHT22;53624;0.000;0.000;2023-10-08T02:10:39;19.30;95.70
66710;DHT22;53624;0.000;0.000;2023-10-08T02:13:07;19.30;95.80
66710;DHT22;53624;0.000;0.000;2023-10-08T02:15:35;19.30;95.80
66710;DHT22;53624;0.000;0.000;2023-10-08T02:18:02;19.20;95.80
66710;DHT22;53624;0.000;0.000;2023-10-08T02:20:30;19.20;95.80
66710;DHT22;53624;0.000;0.000;2023-10-08T02:22:58;19.20;95.80
66710;DHT22;53624;0.000;0.000;2023-10-08T02:25:26;19.20;95.80
66710;DHT22;53624;0.000;0.000;2023-10-08T02:27:55;19.20;95.80
66710;DHT22;53624;0.000;0.000;2023-10-08T02:30:24;19.20;95.80
66710;DHT22;53624;0.000;0.000;2023-10-08T02:32:53;19.20;95.70
66710;DHT22;53624;0.000;0.000;2023-10-08T02:35:20;19.20;95.80
66710;DHT22;53624;0.000;0.000;2023-10-08T02:37:48;19.20;95.80
66710;DHT22;53624;0.000;0.000;2023-10-08T02:40:15;19.20;95.80
66710;DHT22;53624;0.000;0.000;2023-10-08T02:42:51;19.10;95.70
66710;DHT22;53624;0.000;0.000;2023-10-08T02:45:26;19.10;95.70
66710;DHT22;53624;0.000;0.000;2023-10-08T02:47:53;19.10;95.80
66710;DHT22;53624;0.000;0.000;2023-10-08T02:50:21;19.10;95.80
66710;DHT22;53624;0.000;0.000;2023-10-08T02:52:49;19.10;95.80
66710;DHT22;53624;0.000;0.000;2023-10-08T02:55:16;19.10;95.80
66710;DHT22;53624;0.000;0.000;2023-10-08T02:57:54;19.10;95.70
66710;DHT22;53624;0.000;0.000;2023-10-08T03:00:23;19.10;95.80
66710;DHT22;53624;0.000;0.000;2023-10-08T03:02:57;19.00;95.70
66710;DHT22;53624;0.000;0.000;2023-10-08T03:05:27;19.10;95.70
66710;DHT22;53624;0.000;0.000;2023-10-08T03:08:02;19.00;95.70
66710;DHT22;53624;0.000;0.000;2023-10-08T03:10:37;19.00;95.70
66710;DHT22;53624;0.000;0.000;2023-10-08T03:13:04;19.00;95.70
66710;DHT22;53624;0.000;0.000;2023-10-08T03:15:33;19.00;95.70
66710;DHT22;53624;0.000;0.000;2023-10-08T03:18:14;19.00;95.70
66710;DHT22;53624;0.000;0.000;2023-10-08T03:20:40;19.00;95.70
66710;DHT22;53624;0.000;0.000;2023-10-08T03:23:11;18.90;95.70
66710;DHT22;53624;0.000;0.000;2023-10-08T03:25:51;18.90;95.70
66710;DHT22;53624;0.000;0.000;2023-10-08T03:28:24;18.90;95.70
66710;DHT22;53624;0.000;0.000;2023-10-08T03:30:54;18.90;95.70
66710;DHT22;53624;0.000;0.000;2023-10-08T03:33:31;18.90;95.70
66710;DHT22;53624;0.000;0.000;2023-10-08T03:36:01;18.90;95.70
66710;DHT22;53624;0.000;0.000;2023-10-08T03:38:36;18.90;96.00
66710;DHT22;53624;0.000;0.000;2023-10-08T03:41:11;18.90;95.70
66710;DHT22;53624;0.000;0.000;2023-10-08T03:43:44;18.90;95.70
66710;DHT22;53624;0.000;0.000;2023-10-08T03:46:19;18.90;95.70
66710;DHT22;53624;0.000;0.000;2023-10-08T03:48:48;18.80;95.70
66710;DHT22;53624;0.000;0.000;2023-10-08T03:51:17;18.80;95.70
66710;DHT22;53624;0.000;0.000;2023-10-08T03:53:47;18.80;95.70
66710;DHT22;53624;0.000;0.000;2023-10-08T03:56:42;18.80;95.70
66710;DHT22;53624;0.000;0.000;2023-10-08T03:59:12;18.80;95.70
66710;DHT22;53624;0.000;0.000;2023-10-08T04:01:40;18.80;95.70
66710;DHT22;53624;0.000;0.000;2023-10-08T04:04:10;18.80;95.70
66710;DHT22;53624;0.000;0.000;2023-10-08T04:06:40;18.80;95.60
66710;DHT22;53624;0.000;0.000;2023-10-08T04:09:14;18.80;95.70
66710;DHT22;53624;0.000;0.000;2023-10-08T04:11:50;18.80;95.70
66710;DHT22;53624;0.000;0.000;2023-10-08T04:14:22;18.80;95.70
66710;DHT22;53624;0.000;0.000;2023-10-08T04:16:49;18.70;95.70
66710;DHT22;53624;0.000;0.000;2023-10-08T04:19:20;18.70;95.70
66710;DHT22;53624;0.000;0.000;2023-10-08T04:21:52;18.70;95.60
66710;DHT22;53624;0.000;0.000;2023-10-08T04:24:21;18.70;95.70
66710;DHT22;53624;0.000;0.000;2023-10-08T04:26:55;18.70;95.60
66710;DHT22;53624;0.000;0.000;2023-10-08T04:29:23;18.70;95.60
66710;DHT22;53624;0.000;0.000;2023-10-08T04:31:51;18.70;95.60
66710;DHT22;53624;0.000;0.000;2023-10-08T04:34:29;18.70;95.60
66710;DHT22;53624;0.000;0.000;2023-10-08T04:36:59;18.70;95.70
66710;DHT22;53624;0.000;0.000;2023-10-08T04:39:29;18.70;95.60
66710;DHT22;53624;0.000;0.000;2023-10-08T04:41:59;18.70;95.70
66710;DHT22;53624;0.000;0.000;2023-10-08T04:44:32;18.60;95.60
66710;DHT22;53624;0.000;0.000;2023-10-08T04:47:00;18.60;95.60
66710;DHT22;53624;0.000;0.000;2023-10-08T04:49:34;18.60;95.60
66710;DHT22;53624;0.000;0.000;2023-10-08T04:52:04;18.60;95.60
66710;DHT22;53624;0.000;0.000;2023-10-08T04:54:35;18.60;95.60
66710;DHT22;53624;0.000;0.000;2023-10-08T04:57:06;18.60;95.60
66710;DHT22;53624;0.000;0.000;2023-10-08T04:59:41;18.60;95.60
66710;DHT22;53624;0.000;0.000;2023-10-08T05:02:09;18.50;95.60
66710;DHT22;53624;0.000;0.000;2023-10-08T05:05:01;18.50;95.60
66710;DHT22;53624;0.000;0.000;2023-10-08T05:07:48;18.50;95.60
66710;DHT22;53624;0.000;0.000;2023-10-08T05:10:36;18.60;95.60
66710;DHT22;53624;0.000;0.000;2023-10-08T05:13:27;18.60;95.60
66710;DHT22;53624;0.000;0.000;2023-10-08T05:15:59;18.50;95.60
66710;DHT22;53624;0.000;0.000;2023-10-08T05:18:42;18.50;95.60
66710;DHT22;53624;0.000;0.000;2023-10-08T05:21:35;18.50;95.60
66710;DHT22;53624;0.000;0.000;2023-10-08T05:24:18;18.50;95.60
66710;DHT22;53624;0.000;0.000;2023-10-08T05:26:53;18.50;95.60
66710;DHT22;53624;0.000;0.000;2023-10-08T05:29:41;18.50;95.60
66710;DHT22;53624;0.000;0.000;2023-10-08T05:32:41;18.50;95.60
66710;DHT22;53624;0.000;0.000;2023-10-08T05:35:32;18.50;95.90
66710;DHT22;53624;0.000;0.000;2023-10-08T05:38:22;18.50;95.60
66710;DHT22;53624;0.000;0.000;2023-10-08T05:41:04;18.40;95.50
66710;DHT22;53624;0.000;0.000;2023-10-08T05:43:32;18.40;95.50
66710;DHT22;53624;0.000;0.000;2023-10-08T05:46:40;18.40;95.50
66710;DHT22;53624;0.000;0.000;2023-10-08T05:49:32;18.40;95.50
66710;DHT22;53624;0.000;0.000;2023-10-08T05:52:09;18.40;95.50
66710;DHT22;53624;0.000;0.000;2023-10-08T05:54:52;18.40;95.50
66710;DHT22;53624;0.000;0.000;2023-10-08T05:57:37;18.40;95.50
66710;DHT22;53624;0.000;0.000;2023-10-08T06:00:12;18.40;95.50
66710;DHT22;53624;0.000;0.000;2023-10-08T06:02:57;18.40;95.50
66710;DHT22;53624;0.000;0.000;2023-10-08T06:05:36;18.40;95.50
66710;DHT22;53624;0.000;0.000;2023-10-08T06:08:29;18.40;95.50
66710;DHT22;53624;0.000;0.000;2023-10-08T06:11:17;18.40;95.40
66710;DHT22;53624;0.000;0.000;2023-10-08T06:14:03;18.40;95.40
66710;DHT22;53624;0.000;0.000;2023-10-08T06:16:39;18.40;95.40
66710;DHT22;53624;0.000;0.000;2023-10-08T06:19:10;18.40;95.40
66710;DHT22;53624;0.000;0.000;2023-10-08T06:21:38;18.40;95.40
66710;DHT22;53624;0.000;0.000;2023-10-08T06:24:05;18.40;95.40
66710;DHT22;53624;0.000;0.000;2023-10-08T06:26:37;18.40;95.40
66710;DHT22;53624;0.000;0.000;2023-10-08T06:29:09;18.40;95.60
66710;DHT22;53624;0.000;0.000;2023-10-08T06:31:45;18.40;96.10
66710;DHT22;53624;0.000;0.000;2023-10-08T06:34:17;18.50;96.30
66710;DHT22;53624;0.000;0.000;2023-10-08T06:36:47;18.60;96.60
66710;DHT22;53624;0.000;0.000;2023-10-08T06:39:20;18.60;96.90
66710;DHT22;53624;0.000;0.000;2023-10-08T06:41:54;18.60;97.10
66710;DHT22;53624;0.000;0.000;2023-10-08T06:44:28;18.60;97.20
66710;DHT22;53624;0.000;0.000;2023-10-08T06:46:56;18.60;97.20
66710;DHT22;53624;0.000;0.000;2023-10-08T06:49:24;18.70;97.30
66710;DHT22;53624;0.000;0.000;2023-10-08T06:51:51;18.70;97.40
66710;DHT22;53624;0.000;0.000;2023-10-08T06:54:19;18.70;97.40
66710;DHT22;53624;0.000;0.000;2023-10-08T06:56:48;18.70;97.50
66710;DHT22;53624;0.000;0.000;2023-10-08T06:59:20;18.70;97.50
66710;DHT22;53624;0.000;0.000;2023-10-08T07:01:49;18.70;97.40
66710;DHT22;53624;0.000;0.000;2023-10-08T07:04:17;18.70;97.50
66710;DHT22;53624;0.000;0.000;2023-10-08T07:06:44;18.80;97.50
66710;DHT22;53624;0.000;0.000;2023-10-08T07:09:12;18.80;97.50
66710;DHT22;53624;0.000;0.000;2023-10-08T07:11:49;18.80;97.50
66710;DHT22;53624;0.000;0.000;2023-10-08T07:14:22;18.80;97.40
66710;DHT22;53624;0.000;0.000;2023-10-08T07:16:53;18.80;97.40
66710;DHT22;53624;0.000;0.000;2023-10-08T07:19:21;18.90;97.40
66710;DHT22;53624;0.000;0.000;2023-10-08T07:21:58;18.90;97.30
66710;DHT22;53624;0.000;0.000;2023-10-08T07:24:33;18.90;97.30
66710;DHT22;53624;0.000;0.000;2023-10-08T07:27:03;19.00;97.20
66710;DHT22;53624;0.000;0.000;2023-10-08T07:29:36;19.00;97.10
66710;DHT22;53624;0.000;0.000;2023-10-08T07:32:03;19.10;97.00
66710;DHT22;53624;0.000;0.000;2023-10-08T07:34:35;19.20;96.90
66710;DHT22;53624;0.000;0.000;2023-10-08T07:37:03;19.30;96.70
66710;DHT22;53624;0.000;0.000;2023-10-08T07:39:31;19.30;96.60
66710;DHT22;53624;0.000;0.000;2023-10-08T07:42:09;19.40;96.60
66710;DHT22;53624;0.000;0.000;2023-10-08T07:44:38;19.40;96.60
66710;DHT22;53624;0.000;0.000;2023-10-08T07:47:06;19.40;96.50
66710;DHT22;53624;0.000;0.000;2023-10-08T07:49:37;19.50;96.40
66710;DHT22;53624;0.000;0.000;2023-10-08T07:52:04;19.60;96.30
66710;DHT22;53624;0.000;0.000;2023-10-08T07:54:32;19.80;95.90
66710;DHT22;53624;0.000;0.000;2023-10-08T07:57:00;20.00;95.70
66710;DHT22;53624;0.000;0.000;2023-10-08T07:59:34;20.20;95.50
66710;DHT22;53624;0.000;0.000;2023-10-08T08:02:05;21.00;94.50
66710;DHT22;53624;0.000;0.000;2023-10-08T08:04:36;22.30;92.60
66710;DHT22;53624;0.000;0.000;2023-10-08T08:07:03;23.30;90.90
66710;DHT22;53624;0.000;0.000;2023-10-08T08:09:31;23.90;90.00
66710;DHT22;53624;0.000;0.000;2023-10-08T08:12:05;24.30;88.60
66710;DHT22;53624;0.000;0.000;2023-10-08T08:14:34;24.50;87.60
66710;DHT22;53624;0.000;0.000;2023-10-08T08:17:06;24.80;86.80
66710;DHT22;53624;0.000;0.000;2023-10-08T08:19:40;25.00;86.00
66710;DHT22;53624;0.000;0.000;2023-10-08T08:22:07;25.20;85.20
66710;DHT22;53624;0.000;0.000;2023-10-08T08:24:36;25.40;84.70
66710;DHT22;53624;0.000;0.000;2023-10-08T08:27:03;25.50;84.30
66710;DHT22;53624;0.000;0.000;2023-10-08T08:29:37;25.60;84.00
66710;DHT22;53624;0.000;0.000;2023-10-08T08:32:12;25.70;83.80
66710;DHT22;53624;0.000;0.000;2023-10-08T08:34:41;25.70;83.60
66710;DHT22;53624;0.000;0.000;2023-10-08T08:37:11;25.50;84.10
66710;DHT22;53624;0.000;0.000;2023-10-08T08:39:38;25.00;85.00
66710;DHT22;53624;0.000;0.000;2023-10-08T08:42:07;24.40;86.50
66710;DHT22;53624;0.000;0.000;2023-10-08T08:44:36;23.90;88.10
66710;DHT22;53624;0.000;0.000;2023-10-08T08:47:05;23.50;89.70
66710;DHT22;53624;0.000;0.000;2023-10-08T08:49:38;23.30;90.30
66710;DHT22;53624;0.000;0.000;2023-10-08T08:52:06;23.10;90.60
66710;DHT22;53624;0.000;0.000;2023-10-08T08:54:33;23.00;90.90
66710;DHT22;53624;0.000;0.000;2023-10-08T08:57:03;23.00;91.10
66710;DHT22;53624;0.000;0.000;2023-10-08T08:59:32;23.00;90.80
66710;DHT22;53624;0.000;0.000;2023-10-08T09:02:02;23.00;91.00
66710;DHT22;53624;0.000;0.000;2023-10-08T09:04:33;22.90;90.90
66710;DHT22;53624;0.000;0.000;2023-10-08T09:07:05;22.90;91.10
66710;DHT22;53624;0.000;0.000;2023-10-08T09:09:34;23.00;91.20
66710;DHT22;53624;0.000;0.000;2023-10-08T09:12:05;23.00;91.00
66710;DHT22;53624;0.000;0.000;2023-10-08T09:14:36;23.10;91.20
66710;DHT22;53624;0.000;0.000;2023-10-08T09:17:04;23.10;91.10
66710;DHT22;53624;0.000;0.000;2023-10-08T09:19:35;23.20;91.10
66710;DHT22;53624;0.000;0.000;2023-10-08T09:22:03;23.20;91.10
66710;DHT22;53624;0.000;0.000;2023-10-08T09:24:32;23.20;91.20
66710;DHT22;53624;0.000;0.000;2023-10-08T09:27:03;23.30;91.10
66710;DHT22;53624;0.000;0.000;2023-10-08T09:29:31;23.30;91.10
66710;DHT22;53624;0.000;0.000;2023-10-08T09:32:03;23.40;90.90
66710;DHT22;53624;0.000;0.000;2023-10-08T09:34:32;23.40;90.90
66710;DHT22;53624;0.000;0.000;2023-10-08T09:37:00;23.40;90.90
66710;DHT22;53624;0.000;0.000;2023-10-08T09:39:27;23.40;91.00
66710;DHT22;53624;0.000;0.000;2023-10-08T09:41:56;23.50;91.00
66710;DHT22;53624;0.000;0.000;2023-10-08T09:44:24;23.50;91.10
66710;DHT22;53624;0.000;0.000;2023-10-08T09:46:53;23.50;91.10
66710;DHT22;53624;0.000;0.000;2023-10-08T09:49:24;23.60;91.10
66710;DHT22;53624;0.000;0.000;2023-10-08T09:51:55;23.60;91.10
66710;DHT22;53624;0.000;0.000;2023-10-08T09:54:23;23.60;91.20
66710;DHT22;53624;0.000;0.000;2023-10-08T09:56:52;23.70;91.40
66710;DHT22;53624;0.000;0.000;2023-10-08T09:59:21;23.70;91.50
66710;DHT22;53624;0.000;0.000;2023-10-08T10:01:50;23.50;91.30
66710;DHT22;53624;0.000;0.000;2023-10-08T10:04:22;23.50;91.50
66710;DHT22;53624;0.000;0.000;2023-10-08T10:06:50;23.60;91.50
66710;DHT22;53624;0.000;0.000;2023-10-08T10:09:22;23.50;91.70
66710;DHT22;53624;0.000;0.000;2023-10-08T10:11:50;23.60;91.40
66710;DHT22;53624;0.000;0.000;2023-10-08T10:14:19;23.70;91.30
66710;DHT22;53624;0.000;0.000;2023-10-08T10:16:50;23.70;91.30
66710;DHT22;53624;0.000;0.000;2023-10-08T10:19:35;23.60;91.80
66710;DHT22;53624;0.000;0.000;2023-10-08T10:22:03;23.60;92.00
66710;DHT22;53624;0.000;0.000;2023-10-08T10:24:32;23.50;92.00
66710;DHT22;53624;0.000;0.000;2023-10-08T10:27:11;23.60;92.00
66710;DHT22;53624;0.000;0.000;2023-10-08T10:29:40;23.60;91.80
66710;DHT22;53624;0.000;0.000;2023-10-08T10:32:11;23.70;91.50
66710;DHT22;53624;0.000;0.000;2023-10-08T10:34:41;23.90;91.50
66710;DHT22;53624;0.000;0.000;2023-10-08T10:37:09;24.10;91.20
66710;DHT22;53624;0.000;0.000;2023-10-08T10:39:51;24.30;90.90
66710;DHT22;53624;0.000;0.000;2023-10-08T10:42:21;24.40;90.70
66710;DHT22;53624;0.000;0.000;2023-10-08T10:44:48;24.50;90.60
66710;DHT22;53624;0.000;0.000;2023-10-08T10:47:17;24.60;90.50
66710;DHT22;53624;0.000;0.000;2023-10-08T10:50:08;24.70;90.50
66710;DHT22;53624;0.000;0.000;2023-10-08T10:52:57;24.80;90.60
66710;DHT22;53624;0.000;0.000;2023-10-08T10:55:24;24.80;90.30
66710;DHT22;53624;0.000;0.000;2023-10-08T10:57:58;24.90;90.30
66710;DHT22;53624;0.000;0.000;2023-10-08T11:00:37;25.00;90.30
66710;DHT22;53624;0.000;0.000;2023-10-08T11:03:16;24.90;90.30
66710;DHT22;53624;0.000;0.000;2023-10-08T11:05:43;25.10;90.30
66710;DHT22;53624;0.000;0.000;2023-10-08T11:08:15;25.00;90.10
66710;DHT22;53624;0.000;0.000;2023-10-08T11:10:44;25.00;90.10
66710;DHT22;53624;0.000;0.000;2023-10-08T11:13:15;25.10;90.10
66710;DHT22;53624;0.000;0.000;2023-10-08T11:15:42;25.10;90.00
66710;DHT22;53624;0.000;0.000;2023-10-08T11:18:14;25.20;90.00
66710;DHT22;53624;0.000;0.000;2023-10-08T11:20:43;25.30;90.30
66710;DHT22;53624;0.000;0.000;2023-10-08T11:23:11;25.40;90.00
66710;DHT22;53624;0.000;0.000;2023-10-08T11:25:54;25.40;89.60
66710;DHT22;53624;0.000;0.000;2023-10-08T11:28:21;25.40;89.20
66710;DHT22;53624;0.000;0.000;2023-10-08T11:30:53;25.20;88.50
66710;DHT22;53624;0.000;0.000;2023-10-08T11:33:20;25.10;89.20
66710;DHT22;53624;0.000;0.000;2023-10-08T11:36:00;25.10;89.70
66710;DHT22;53624;0.000;0.000;2023-10-08T11:38:37;25.20;89.40
66710;DHT22;53624;0.000;0.000;2023-10-08T11:41:11;25.20;89.60
66710;DHT22;53624;0.000;0.000;2023-10-08T11:43:47;25.20;89.60
66710;DHT22;53624;0.000;0.000;2023-10-08T11:46:20;25.30;89.40
66710;DHT22;53624;0.000;0.000;2023-10-08T11:48:47;25.30;88.40
66710;DHT22;53624;0.000;0.000;2023-10-08T11:51:17;25.30;87.50
66710;DHT22;53624;0.000;0.000;2023-10-08T11:53:49;25.40;84.70
66710;DHT22;53624;0.000;0.000;2023-10-08T11:56:17;25.40;85.70
66710;DHT22;53624;0.000;0.000;2023-10-08T11:58:49;25.30;86.30
66710;DHT22;53624;0.000;0.000;2023-10-08T12:01:17;25.40;85.30
66710;DHT22;53624;0.000;0.000;2023-10-08T12:03:44;25.50;82.90
66710;DHT22;53624;0.000;0.000;2023-10-08T12:06:12;25.60;86.00
66710;DHT22;53624;0.000;0.000;2023-10-08T12:08:43;25.60;86.40
66710;DHT22;53624;0.000;0.000;2023-10-08T12:11:12;25.60;84.70
66710;DHT22;53624;0.000;0.000;2023-10-08T12:13:40;25.50;85.40
66710;DHT22;53624;0.000;0.000;2023-10-08T12:16:11;25.50;86.80
66710;DHT22;53624;0.000;0.000;2023-10-08T12:18:44;25.50;86.80
66710;DHT22;53624;0.000;0.000;2023-10-08T12:21:14;25.60;86.50
66710;DHT22;53624;0.000;0.000;2023-10-08T12:23:44;25.50;86.80
66710;DHT22;53624;0.000;0.000;2023-10-08T12:26:13;25.60;87.00
66710;DHT22;53624;0.000;0.000;2023-10-08T12:28:45;25.60;86.90
66710;DHT22;53624;0.000;0.000;2023-10-08T12:31:14;25.50;85.50
66710;DHT22;53624;0.000;0.000;2023-10-08T12:33:42;25.60;86.10
66710;DHT22;53624;0.000;0.000;2023-10-08T12:36:10;25.60;86.30
66710;DHT22;53624;0.000;0.000;2023-10-08T12:38:37;25.70;86.70
66710;DHT22;53624;0.000;0.000;2023-10-08T12:41:06;25.60;86.90
66710;DHT22;53624;0.000;0.000;2023-10-08T12:43:38;25.70;85.80
66710;DHT22;53624;0.000;0.000;2023-10-08T12:46:08;25.70;85.80
66710;DHT22;53624;0.000;0.000;2023-10-08T12:48:42;25.70;85.40
66710;DHT22;53624;0.000;0.000;2023-10-08T12:51:16;25.70;85.00
66710;DHT22;53624;0.000;0.000;2023-10-08T12:53:43;25.90;84.00
66710;DHT22;53624;0.000;0.000;2023-10-08T12:56:18;25.90;85.50
66710;DHT22;53624;0.000;0.000;2023-10-08T12:58:47;25.80;85.80
66710;DHT22;53624;0.000;0.000;2023-10-08T13:01:19;25.80;86.20
66710;DHT22;53624;0.000;0.000;2023-10-08T13:03:47;25.80;84.40
66710;DHT22;53624;0.000;0.000;2023-10-08T13:06:20;25.80;85.20
66710;DHT22;53624;0.000;0.000;2023-10-08T13:08:49;25.80;86.00
66710;DHT22;53624;0.000;0.000;2023-10-08T13:11:20;25.70;86.50
66710;DHT22;53624;0.000;0.000;2023-10-08T13:13:51;25.70;86.70
66710;DHT22;53624;0.000;0.000;2023-10-08T13:16:19;25.60;87.30
66710;DHT22;53624;0.000;0.000;2023-10-08T13:18:47;25.50;87.60
66710;DHT22;53624;0.000;0.000;2023-10-08T13:21:14;25.50;86.90
66710;DHT22;53624;0.000;0.000;2023-10-08T13:23:42;25.40;86.40
66710;DHT22;53624;0.000;0.000;2023-10-08T13:26:10;25.40;87.40
66710;DHT22;53624;0.000;0.000;2023-10-08T13:28:44;25.30;87.80
66710;DHT22;53624;0.000;0.000;2023-10-08T13:31:11;25.20;89.00
66710;DHT22;53624;0.000;0.000;2023-10-08T13:33:39;25.10;88.40
66710;DHT22;53624;0.000;0.000;2023-10-08T13:36:10;25.00;88.80
66710;DHT22;53624;0.000;0.000;2023-10-08T13:38:40;24.90;89.00
66710;DHT22;53624;0.000;0.000;2023-10-08T13:41:07;24.90;87.40
66710;DHT22;53624;0.000;0.000;2023-10-08T13:43:41;24.80;89.30
66710;DHT22;53624;0.000;0.000;2023-10-08T13:46:13;24.70;89.70
66710;DHT22;53624;0.000;0.000;2023-10-08T13:48:41;24.70;90.00
66710;DHT22;53624;0.000;0.000;2023-10-08T13:51:12;24.60;88.20
66710;DHT22;53624;0.000;0.000;2023-10-08T13:53:40;24.50;90.00
66710;DHT22;53624;0.000;0.000;2023-10-08T13:56:11;24.50;89.20
66710;DHT22;53624;0.000;0.000;2023-10-08T13:58:39;24.50;90.30
66710;DHT22;53624;0.000;0.000;2023-10-08T14:01:13;24.40;90.30
66710;DHT22;53624;0.000;0.000;2023-10-08T14:03:46;24.40;90.30
66710;DHT22;53624;0.000;0.000;2023-10-08T14:06:14;24.30;90.30
66710;DHT22;53624;0.000;0.000;2023-10-08T14:08:42;24.20;90.50
66710;DHT22;53624;0.000;0.000;2023-10-08T14:11:18;24.30;90.80
66710;DHT22;53624;0.000;0.000;2023-10-08T14:13:45;24.30;90.90
66710;DHT22;53624;0.000;0.000;2023-10-08T14:16:15;24.30;90.80
66710;DHT22;53624;0.000;0.000;2023-10-08T14:18:44;24.30;90.80
66710;DHT22;53624;0.000;0.000;2023-10-08T14:21:16;24.20;91.00
66710;DHT22;53624;0.000;0.000;2023-10-08T14:23:44;24.10;91.20
66710;DHT22;53624;0.000;0.000;2023-10-08T14:26:13;24.10;91.40
66710;DHT22;53624;0.000;0.000;2023-10-08T14:28:41;24.10;91.30
66710;DHT22;53624;0.000;0.000;2023-10-08T14:31:18;24.00;91.30
66710;DHT22;53624;0.000;0.000;2023-10-08T14:33:48;24.00;91.40
66710;DHT22;53624;0.000;0.000;2023-10-08T14:36:30;23.90;91.60
66710;DHT22;53624;0.000;0.000;2023-10-08T14:39:14;23.80;92.00
66710;DHT22;53624;0.000;0.000;2023-10-08T14:42:10;23.80;92.00
66710;DHT22;53624;0.000;0.000;2023-10-08T14:44:55;23.70;92.20
66710;DHT22;53624;0.000;0.000;2023-10-08T14:47:24;23.70;92.30
66710;DHT22;53624;0.000;0.000;2023-10-08T14:49:51;23.70;92.40
66710;DHT22;53624;0.000;0.000;2023-10-08T14:52:19;23.60;93.10
66710;DHT22;53624;0.000;0.000;2023-10-08T14:54:46;23.60;93.40
66710;DHT22;53624;0.000;0.000;2023-10-08T14:57:13;23.50;93.70
66710;DHT22;53624;0.000;0.000;2023-10-08T14:59:41;23.50;93.50
66710;DHT22;53624;0.000;0.000;2023-10-08T15:02:08;23.40;93.50
66710;DHT22;53624;0.000;0.000;2023-10-08T15:04:38;23.40;93.40
66710;DHT22;53624;0.000;0.000;2023-10-08T15:07:06;23.50;93.30
66710;DHT22;53624;0.000;0.000;2023-10-08T15:09:37;23.50;93.20
66710;DHT22;53624;0.000;0.000;2023-10-08T15:12:05;23.40;93.20
66710;DHT22;53624;0.000;0.000;2023-10-08T15:14:33;23.30;93.70
66710;DHT22;53624;0.000;0.000;2023-10-08T15:17:01;23.30;93.70
66710;DHT22;53624;0.000;0.000;2023-10-08T15:19:28;23.30;93.90
66710;DHT22;53624;0.000;0.000;2023-10-08T15:21:57;23.20;93.90
66710;DHT22;53624;0.000;0.000;2023-10-08T15:24:25;23.20;93.90
66710;DHT22;53624;0.000;0.000;2023-10-08T15:26:52;23.10;94.00
66710;DHT22;53624;0.000;0.000;2023-10-08T15:29:20;23.10;93.90
66710;DHT22;53624;0.000;0.000;2023-10-08T15:31:48;23.10;93.90
66710;DHT22;53624;0.000;0.000;2023-10-08T15:34:16;23.10;93.90
66710;DHT22;53624;0.000;0.000;2023-10-08T15:36:43;23.10;93.80
66710;DHT22;53624;0.000;0.000;2023-10-08T15:39:12;23.00;93.90
66710;DHT22;53624;0.000;0.000;2023-10-08T15:41:46;23.00;94.10
66710;DHT22;53624;0.000;0.000;2023-10-08T15:44:13;23.00;94.10
66710;DHT22;53624;0.000;0.000;2023-10-08T15:46:41;23.00;94.10
66710;DHT22;53624;0.000;0.000;2023-10-08T15:49:08;23.00;94.20
66710;DHT22;53624;0.000;0.000;2023-10-08T15:51:35;23.00;94.20
66710;DHT22;53624;0.000;0.000;2023-10-08T15:54:04;23.00;94.30
66710;DHT22;53624;0.000;0.000;2023-10-08T15:56:33;23.00;94.30
66710;DHT22;53624;0.000;0.000;2023-10-08T15:59:01;23.00;94.20
66710;DHT22;53624;0.000;0.000;2023-10-08T16:01:29;23.00;94.30
66710;DHT22;53624;0.000;0.000;2023-10-08T16:03:56;23.00;94.30
66710;DHT22;53624;0.000;0.000;2023-10-08T16:06:23;22.90;94.40
66710;DHT22;53624;0.000;0.000;2023-10-08T16:08:51;22.90;94.60
66710;DHT22;53624;0.000;0.000;2023-10-08T16:11:18;22.90;94.80
66710;DHT22;53624;0.000;0.000;2023-10-08T16:13:47;22.90;94.90